Home > Products > Valid Products > MTR

000
SAUS46 KPQR 220453
MTRREO
METAR KREO 220452Z AUTO 14009KT 06/M01 A3005 RMK AO1 SLP177
T00561006





000
SAUS46 KPQR 220353
MTRREO
METAR KREO 220352Z AUTO 13009KT 06/00 A3005 RMK AO1 SLP178 T00560000





000
SAUS46 KPQR 220253
MTRREO
METAR KREO 220252Z AUTO 11004KT 07/00 A3005 RMK AO1 SLP179 T00720000
53001





000
SAUS46 KPQR 220253
MTRREO
METAR KREO 220252Z AUTO 11004KT 07/00 A3005 RMK AO1 SLP179 T00720000
53001





000
SAUS46 KPQR 220153
MTRREO
METAR KREO 220152Z AUTO 07006KT 08/00 A3006 RMK AO1 SLP179 T00830000





000
SAUS46 KPQR 220053
MTRREO
METAR KREO 220052Z AUTO 00000KT 12/M03 A3004 RMK AO1 SLP167
T01171028





000
SAUS46 KPQR 212355
MTRREO
METAR KREO 212352Z AUTO 22005KT 13/M03 A3005 RMK AO1 SLP167
T01281033 10144 20094 56004





000
SAUS46 KPQR 212253
MTRREO
METAR KREO 212252Z AUTO 25008KT 14/M03 A3005 RMK AO1 SLP166
T01391028





000
SAUS46 KPQR 212253
MTRREO
METAR KREO 212252Z AUTO 25008KT 14/M03 A3005 RMK AO1 SLP166
T01391028





000
SAUS46 KPQR 212153
MTRREO
METAR KREO 212152Z AUTO 26007KT 14/M02 A3005 RMK AO1 SLP164
T01391022





000
SAUS46 KPQR 212153
MTRREO
METAR KREO 212152Z AUTO 26007KT 14/M02 A3005 RMK AO1 SLP164
T01391022





000
SAUS46 KPQR 212053
MTRREO
METAR KREO 212052Z AUTO 25011KT 14/M01 A3006 RMK AO1 SLP167
T01391011 58006





000
SAUS46 KPQR 211953
MTRREO
METAR KREO 211952Z AUTO 19006G16KT 12/00 A3007 RMK AO1 SLP174
T01220000





000
SAUS46 KPQR 211853
MTRREO
METAR KREO 211852Z AUTO VRB03KT 11/M01 A3009 RMK AO1 SLP181
T01061006





000
SAUS46 KPQR 211753
MTRREO
METAR KREO 211752Z AUTO 23009KT 09/01 A3008 RMK AO1 SLP180 60011
T00940006 10111 20056 51013





000
SAUS46 KPQR 211653
MTRREO
METAR KREO 211652Z AUTO 23013KT 10/02 A3007 RMK AO1 SLP173 T01000022





000
SAUS46 KPQR 211653
MTRREO
METAR KREO 211652Z AUTO 23013KT 10/02 A3007 RMK AO1 SLP173 T01000022





000
SAUS46 KPQR 211553
MTRREO
METAR KREO 211552Z AUTO 20009KT 07/03 A3006 RMK AO1 SLP169 T00720033





000
SAUS46 KPQR 211553
MTRREO
METAR KREO 211552Z AUTO 20009KT 07/03 A3006 RMK AO1 SLP169 T00720033





000
SAUS46 KPQR 211453
MTRREO
METAR KREO 211452Z AUTO 18008KT 06/03 A3004 RMK AO1 SLP161 P0001
60011 T00560033 53033





000
SAUS46 KPQR 211354
MTRREO
METAR KREO 211352Z AUTO 19008KT 06/04 A3000 RMK AO1 WSHFT 1257
SLP148 P0010 T00560039





000
SAUS46 KPQR 211315
MTRREO
SPECI KREO 211314Z AUTO 29010KT 06/03 A2998 RMK AO1 WSHFT 1257 P0004
T00610033





000
SAUS46 KPQR 211253
MTRREO
METAR KREO 211252Z AUTO 22019G26KT 08/02 A2995 RMK AO1 PK WND
20026/1251 SLP124 T00780017





000
SAUS46 KPQR 211153
MTRREO
METAR KREO 211152Z AUTO 21014G23KT 08/01 A2993 RMK AO1 SLP111 60001
70004 T00830011 10111 20083 53012





000
SAUS46 KPQR 211153
MTRREO
METAR KREO 211152Z AUTO 21014G23KT 08/01 A2993 RMK AO1 SLP111 60001
70004 T00830011 10111 20083 53012





000
SAUS46 KPQR 211054
MTRREO
METAR KREO 211052Z AUTO 22018G23KT 09/01 A2989 RMK AO1 SLP097
T00940011





000
SAUS46 KPQR 211054
MTRREO
METAR KREO 211052Z AUTO 22018G23KT 09/01 A2989 RMK AO1 SLP097
T00940011





000
SAUS46 KPQR 210953
MTRREO
METAR KREO 210952Z AUTO 20011KT 10/01 A2989 RMK AO1 SLP097 T01000011





000
SAUS46 KPQR 210853
MTRREO
METAR KREO 210852Z AUTO 19013KT 10/02 A2989 RMK AO1 SLP093 60001
T01000022 50006





000
SAUS46 KPQR 210753
MTRREO
METAR KREO 210752Z AUTO 15009KT 09/04 A2989 RMK AO1 SLP097 T00890039
402500028





000
SAUS46 KPQR 210653
MTRREO
METAR KREO 210652Z AUTO 23009G22KT 10/03 A2990 RMK AO1 PK WND
23031/0635 SLP102 P0001 T01000033





000
SAUS46 KPQR 210553
MTRREO
METAR KREO 210552Z AUTO 25005KT 11/07 A2986 RMK AO1 SLP092 P0003
60003 T01060072 10222 20106 53033





000
SAUS46 KPQR 210453
MTRREO
METAR KREO 210452Z AUTO 19010KT 13/01 A2983 RMK AO1 PRESRR SLP081
T01330006





000
SAUS46 KPQR 210453
MTRREO
METAR KREO 210452Z AUTO 19010KT 13/01 A2983 RMK AO1 PRESRR SLP081
T01330006





000
SAUS46 KPQR 210353
MTRREO
METAR KREO 210352Z AUTO 23009KT 14/M03 A2977 RMK AO1 SLP067
T01441033





000
SAUS46 KPQR 210353
MTRREO
METAR KREO 210352Z AUTO 23009KT 14/M03 A2977 RMK AO1 SLP067
T01441033





000
SAUS46 KPQR 210253
MTRREO
METAR KREO 210252Z AUTO 14006KT 16/M04 A2976 RMK AO1 SLP063
T01611039 56008





000
SAUS46 KPQR 210253
MTRREO
METAR KREO 210252Z AUTO 14006KT 16/M04 A2976 RMK AO1 SLP063
T01611039 56008





000
SAUS46 KPQR 210153
MTRREO
METAR KREO 210152Z AUTO 19005KT 17/M04 A2976 RMK AO1 SLP064
T01671044





000
SAUS46 KPQR 210153
MTRREO
METAR KREO 210152Z AUTO 19005KT 17/M04 A2976 RMK AO1 SLP064
T01671044





000
SAUS46 KPQR 210053
MTRREO
METAR KREO 210052Z AUTO 17009KT 19/M04 A2977 RMK AO1 SLP067
T01941039





000
SAUS46 KPQR 202353
MTRREO
METAR KREO 202352Z AUTO 19013KT 22/M05 A2978 RMK AO1 SLP063
T02221050 10250 20189 56008





000
SAUS46 KPQR 202253
MTRREO
METAR KREO 202252Z AUTO 19018G25KT 24/M06 A2979 RMK AO1 PK WND
18028/2220 SLP063 T02391056





000
SAUS46 KPQR 202253
MTRREO
METAR KREO 202252Z AUTO 19018G25KT 24/M06 A2979 RMK AO1 PK WND
18028/2220 SLP063 T02391056





000
SAUS46 KPQR 202153
MTRREO
METAR KREO 202152Z AUTO 19020G27KT 23/M06 A2979 RMK AO1 PK WND
19029/2140 SLP063 T02331061





000
SAUS46 KPQR 202153
MTRREO
METAR KREO 202152Z AUTO 19020G27KT 23/M06 A2979 RMK AO1 PK WND
19029/2140 SLP063 T02331061





000
SAUS46 KPQR 202053
MTRREO
METAR KREO 202052Z AUTO 20016G27KT 24/M06 A2981 RMK AO1 PK WND
17029/2042 SLP069 T02441061 57024





000
SAUS46 KPQR 201957 COR
MTRREO
METAR KREO 201952Z AUTO 34008KT 23/M03 A2983 RMK AO1 SLP071
T02331033





000
SAUS46 KPQR 201955 COR
MTRREO
METAR KREO 201952Z AUTO 34008KT 23/M03 A2983 RMK AO1 SLP071
T02331033





000
SAUS46 KPQR 201954 COR
MTRREO
METAR KREO 201952Z AUTO 34008KT 23/M03 A2983 RMK AO1 SLP071
T02331033





000
SAUS46 KPQR 201953
MTRREO
METAR KREO 201952Z AUTO 34008KT 23/M03 A2983 RMK AO1 SLP071
T02331033





000
SAUS46 KPQR 201858 COR
MTRREO
METAR KREO 201852Z AUTO VRB04KT 21/M04 A2987 RMK AO1 SLP089
T02111039





000
SAUS46 KPQR 201759 COR
MTRREO
METAR KREO 201752Z AUTO 00000KT 19/M04 A2989 RMK AO1 SLP099
T01941039 10194 20028 58003





000
SAUS46 KPQR 201653
MTRREO
METAR KREO 201652Z AUTO 31006KT 17/M03 A2990 RMK AO1 SLP104
T01671033





000
SAUS46 KPQR 201553
MTRREO
METAR KREO 201552Z AUTO 31003KT 09/M04 A2991 RMK AO1 SLP118
T00941044





000
SAUS46 KPQR 201453
MTRREO
METAR KREO 201452Z AUTO 30003KT 06/M05 A2990 RMK AO1 SLP116
T00611050 51001





000
SAUS46 KPQR 201358 COR
MTRREO
METAR KREO 201352Z AUTO 11007KT 06/M05 A2989 RMK AO1 SLP113
T00561050





000
SAUS46 KPQR 201356 COR
MTRREO
METAR KREO 201352Z AUTO 11007KT 06/M05 A2989 RMK AO1 SLP113
T00561050





000
SAUS46 KPQR 201355
MTRREO
METAR KREO 201352Z AUTO 11007KT 06/M05 A2989 RMK AO1 SLP113
T00561050





000
SAUS46 KPQR 201355 COR
MTRREO
METAR KREO 201352Z AUTO 11007KT 06/M05 A2989 RMK AO1 SLP113
T00561050





000
SAUS46 KPQR 201253
MTRREO
METAR KREO 201252Z AUTO 23003KT 04/M06 A2991 RMK AO1 SLP113
T00441056





000
SAUS46 KPQR 201153
MTRREO
METAR KREO 201152Z AUTO 00000KT 07/M05 A2990 RMK AO1 SLP100
T00721050 10150 20050 55001





000
SAUS46 KPQR 201053
MTRREO
METAR KREO 201052Z AUTO 19005KT 08/M05 A2990 RMK AO1 SLP098
T00781050





000
SAUS46 KPQR 201053
MTRREO
METAR KREO 201052Z AUTO 19005KT 08/M05 A2990 RMK AO1 SLP098
T00781050





000
SAUS46 KPQR 200953
MTRREO
METAR KREO 200952Z AUTO 15009KT 09/M04 A2990 RMK AO1 SLP099
T00891044





000
SAUS46 KPQR 200953
MTRREO
METAR KREO 200952Z AUTO 15009KT 09/M04 A2990 RMK AO1 SLP099
T00891044





000
SAUS46 KPQR 200853
MTRREO
METAR KREO 200852Z AUTO 16005KT 08/M06 A2990 RMK AO1 SLP103
T00781061 53001





000
SAUS46 KPQR 200753
MTRREO
METAR KREO 200752Z AUTO 19006KT 13/M05 A2990 RMK AO1 SLP098
T01281050 402500000





000
SAUS46 KPQR 200753
MTRREO
METAR KREO 200752Z AUTO 19006KT 13/M05 A2990 RMK AO1 SLP098
T01281050 402500000





000
SAUS46 KPQR 200653
MTRREO
METAR KREO 200652Z AUTO 21006KT 12/M05 A2989 RMK AO1 SLP100
T01221050





000
SAUS46 KPQR 200553
MTRREO
METAR KREO 200552Z AUTO 23007KT 11/M06 A2990 RMK AO1 SLP108
T01111056 10244 20111 55002





000
SAUS46 KPQR 200453
MTRREO
METAR KREO 200452Z AUTO 13012KT 14/M06 A2990 RMK AO1 SLP108
T01391056





000
SAUS46 KPQR 200353
MTRREO
METAR KREO 200352Z AUTO 14009KT 13/M06 A2990 RMK AO1 SLP116
T01281061





000
SAUS46 KPQR 200253
MTRREO
METAR KREO 200252Z AUTO 13011KT 15/M07 A2990 RMK AO1 SLP121
T01501067 51003





000
SAUS46 KPQR 200153
MTRREO
METAR KREO 200152Z AUTO 13011KT 15/M07 A2990 RMK AO1 SLP124
T01501072





000
SAUS46 KPQR 200055
MTRREO
METAR KREO 200052Z AUTO 18008KT 21/M07 A2990 RMK AO1 SLP113
T02111067





000
SAUS46 KPQR 192353
MTRREO
METAR KREO 192352Z AUTO 18011KT 24/M06 A2990 RMK AO1 SLP108
T02441061 10250 20150 56013





000
SAUS46 KPQR 192353
MTRREO
METAR KREO 192352Z AUTO 18011KT 24/M06 A2990 RMK AO1 SLP108
T02441061 10250 20150 56013





000
SAUS46 KPQR 192253
MTRREO
METAR KREO 192252Z AUTO 21006KT 25/M04 A2991 RMK AO1 SLP109
T02501044





000
SAUS46 KPQR 192253
MTRREO
METAR KREO 192252Z AUTO 21006KT 25/M04 A2991 RMK AO1 SLP109
T02501044





000
SAUS46 KPQR 192153
MTRREO
METAR KREO 192152Z AUTO VRB04KT 24/M04 A2992 RMK AO1 SLP113
T02391044





000
SAUS46 KPQR 192153
MTRREO
METAR KREO 192152Z AUTO VRB04KT 24/M04 A2992 RMK AO1 SLP113
T02391044





000
SAUS46 KPQR 192053
MTRREO
METAR KREO 192052Z AUTO 00000KT 23/M04 A2994 RMK AO1 SLP122
T02331039 58021





000
SAUS46 KPQR 191953
MTRREO
METAR KREO 191952Z AUTO 25003KT 21/M03 A2997 RMK AO1 SLP130
T02111033





000
SAUS46 KPQR 191853
MTRREO
METAR KREO 191852Z AUTO 32005KT 18/M03 A3000 RMK AO1 SLP146
T01831028





000
SAUS46 KPQR 191753
MTRREO
METAR KREO 191752Z AUTO 00000KT 15/M02 A3001 RMK AO1 SLP151
T01501017 10150 20000 58002





000
SAUS46 KPQR 191653
MTRREO
METAR KREO 191652Z AUTO 26003KT 11/M02 A3002 RMK AO1 SLP155
T01111022





000
SAUS46 KPQR 191553
MTRREO
METAR KREO 191552Z AUTO 25003KT 08/M03 A3002 RMK AO1 SLP158
T00831033





000
SAUS46 KPQR 191453
MTRREO
METAR KREO 191452Z AUTO 15005KT 03/M04 A3001 RMK AO1 SLP164
T00281044 50003





000
SAUS46 KPQR 191353
MTRREO
METAR KREO 191352Z AUTO 16004KT 01/M06 A3001 RMK AO1 SLP166
T00061061





000
SAUS46 KPQR 191253
MTRREO
METAR KREO 191252Z AUTO 15005KT 01/M06 A3000 RMK AO1 SLP153
T00111056





000
SAUS46 KPQR 191153
MTRREO
METAR KREO 191152Z AUTO 15005KT 01/M06 A3000 RMK AO1 SLP149
T00111056 10072 20006 56005





000
SAUS46 KPQR 191053
MTRREO
METAR KREO 191052Z AUTO 00000KT 02/M05 A3001 RMK AO1 SLP150
T00221050





000
SAUS46 KPQR 190954
MTRREO
METAR KREO 190952Z AUTO 18003KT 03/M05 A3001 RMK AO1 SLP151
T00331050





000
SAUS46 KPQR 190954
MTRREO
METAR KREO 190952Z AUTO 18003KT 03/M05 A3001 RMK AO1 SLP151
T00331050





000
SAUS46 KPQR 190854
MTRREO
METAR KREO 190852Z AUTO 15003KT 03/M06 A3002 RMK AO1 SLP155
T00331056 56005





000
SAUS46 KPQR 190753
MTRREO
METAR KREO 190752Z AUTO 00000KT 06/M04 A3002 RMK AO1 SLP151
T00611039 402170011





000
SAUS46 KPQR 190653
MTRREO
METAR KREO 190652Z AUTO 00000KT 05/M04 A3002 RMK AO1 SLP156
T00501044





000
SAUS46 KPQR 190553
MTRREO
METAR KREO 190552Z AUTO 00000KT 07/M04 A3004 RMK AO1 SLP161
T00721044 10206 20056 50003





    US Dept of Commerce
    National Oceanic and Atmospheric Administration
    National Weather Service
    1325 East West Highway
    Silver Spring, MD 20910
    Page Author: NWS Internet Services Team
Disclaimer
Information Quality
Credits
Glossary
Privacy Policy
Freedom of Information Act (FOIA)
About Us
Career Opportunities